Davesweather.gif


Forecast: mostly cloudy and cooler, precipitation possible within 12 hours, possibly heavy at times, windy.
Davesweather
LAST READING AT TIME: 7:20 AM DATE: 16 June 2021, time of next update: 7:25 am
Current WeatherHaze Current Temperature 15.2°C (59.3°F), Apparent temp 15.9°C
Maximum Temperature (since midnight)15.8°C at: 12:00 AM Minimum Temperature (since midnight)14.9°C at: 5:20 AM
Average windspeed (ten minute)3.1 kmh (1.7 kts) Wind Direction (ten minute)SSE (158°)
Windchill Temperature 15.2°C Maximum Gust (last hour)14.5 kmh (7.8 kts) at: 7:00 AM
Maximum Gust (since midnight)22.5 kmh (12.2 kts) at: 12:21 AM Maximum 1 minute average (since midnight)10.3 kmh (5.6 kts) at: 12:21 AM
Rainfall (last hour)0.0 mm Rainfall (since midnight)6.4 mm (0.25 in.) at 3:03 AM
Rainfall This month 41.2 mm (1.62 in.) Rainfall To date this year 379.4 mm (14.94 in.)
Maximum rain per minute (last hour)0.0 mm/min Maximum rain per hour (last 6 hours)6.2 mm/hour
Yesterdays rainfall 24.8 mm DewPoint 14.7°C (Wet Bulb :14.9°C )
Humidity 97 %, Humidex 19.0°C Barometer corrected to msl1002.7 mb
Pressure change -0.8 mb (last hour) Trend (last hour)STEADY
Pressure change (last 12 hours)-6.4 mb Pressure change (last 6 hours)-3.3 mb


NovaScotia Webcams looking towards Truro from Truro Nissan located in Onslow just outside of Truro.


Weather report/warning/Metars

Halifax International Airport , Canada (CYHZ) 44-53N 063-30W
Jun 16, 2021 - 06:00 AM EDT / 2021.06.16 1000 UTC
Wind: from the S (180 degrees) at 5 MPH (4 KT) (direction variable):0
Visibility: 3/8 mile(s):0
Sky conditions: obscured
Weather: fog
Temperature: 55 F (13 C)
Dew Point: 55 F (13 C)
Relative Humidity: 100%
Pressure (altimeter): 29.64 in. Hg (1003 hPa)
ob: CYHZ 161000Z 18004KT 160V240 3/8SM R23/3500V5500FT/D R14/P6000FT/D FG VV001 13/13 A2964 RMK FG8 SLP041 DENSITY ALT 800FT
cycle: 10
Greenwood, N. S., Canada (CYZX) 44-59N 064-55W 28M
Jun 16, 2021 - 06:00 AM EDT / 2021.06.16 1000 UTC
Wind: from the S (180 degrees) at 2 MPH (2 KT):0
Visibility: 8 mile(s):0
Sky conditions: overcast
Weather: light rain showers
Temperature: 62 F (17 C)
Dew Point: 60 F (16 C)
Relative Humidity: 93%
Pressure (altimeter): 29.61 in. Hg (1002 hPa)
ob: CYZX 161000Z 18002KT 8SM -SHRA SCT007 OVC016 17/16 A2961 RMK SF4SC4 SLP026
cycle: 10



Some Extra Links


Environment Canada Radar

Forecast by Environment Canada in Debert, NS
Wunderground map of Wx Sites

NS Power Outage Map

NB Power Outage Map

Truro,NS APRS Stations

Davesweather Archives

Snowfall History

Recent Snowfalls



Space Weather Info for Ham Radio





DXNews Calendar






QUESTIONS OR COMMENTS, E-MAIL ME: DAVE at DAVESWEATHER dot CA & on Twitter @Davesweather1